Decoded Metar for LKPR (PRAGUE in CZECH REPUBLIC) (IATA:PRG) | Meteo·Mobile Aviation Weather
aviador You're here:

LKPR Decoded Metar

PRAGUE in CZECH REPUBLIC
Report Time2019-03-21 15:00:00
UTC Time2019-03-21 15:34:10
Flight Rules vfr VFR
WindVRB at 02 kt
Visibility9999 m
Phenomena:N/A
Clouds:N/A
Expected CloudBase > 5,200 ft AGL from Temp-Dew spread
CeilingNone
Temp14°C (ISA +1)
Dew Point01°C (41% RH)
AAT11.4°C
QNH1032 hPa
Density Alt820 ft
Elevation1,198 ft
Report Wrong Elevation
Raw Report
LKPR 211500Z VRB02KT CAVOK 14/01 Q1032 NOSIG=

Extra information for LKPR:More info

Metar Taf Metar & Taf Last 4 Metars F.Rules Stats Wind Profile Meteogram Temp Stats Airport Information Weather charts Add Link Nearby VenuesMetar ALERT Operation Metar Decoded Social comments